createdAt,value
2018-05-26T00:00:23.100Z,68.07
2018-05-26T00:02:51.682Z,68.01
2018-05-26T00:05:20.251Z,67.95
2018-05-26T00:07:48.854Z,67.65
2018-05-26T00:10:17.451Z,67.41
2018-05-26T00:12:46.016Z,67.22
2018-05-26T00:15:14.578Z,67.12
2018-05-26T00:17:43.132Z,67.00
2018-05-26T00:20:11.709Z,66.94
2018-05-26T00:22:40.036Z,66.98
2018-05-26T00:25:08.601Z,66.85
2018-05-26T00:27:37.186Z,67.21
2018-05-26T00:30:07.399Z,67.55
2018-05-26T00:32:35.964Z,67.77
2018-05-26T00:35:04.529Z,67.72
2018-05-26T00:37:33.094Z,67.95
2018-05-26T00:40:01.642Z,68.00
2018-05-26T00:42:30.365Z,68.02
2018-05-26T00:44:58.955Z,67.79
2018-05-26T00:47:27.525Z,67.78
2018-05-26T00:49:56.100Z,68.00
2018-05-26T00:52:24.663Z,68.22
2018-05-26T00:54:53.277Z,68.61
2018-05-26T00:57:21.937Z,68.97
2018-05-26T00:59:50.557Z,69.08
2018-05-26T01:02:19.139Z,70.00
2018-05-26T01:04:48.609Z,70.54
2018-05-26T01:07:17.219Z,70.87
2018-05-26T01:09:45.799Z,70.93
2018-05-26T01:12:14.383Z,70.85
2018-05-26T01:14:42.969Z,70.72
2018-05-26T01:17:11.531Z,70.62
2018-05-26T01:19:40.108Z,70.49
2018-05-26T01:22:08.670Z,70.25
2018-05-26T01:24:37.220Z,70.20
2018-05-26T01:27:05.825Z,70.15
2018-05-26T01:29:34.388Z,70.06
2018-05-26T01:32:02.953Z,69.91
2018-05-26T01:34:31.517Z,69.96
2018-05-26T01:37:00.062Z,69.85
2018-05-26T01:39:28.621Z,69.89
2018-05-26T01:41:57.177Z,70.11
2018-05-26T01:44:25.739Z,70.29
2018-05-26T01:46:54.296Z,70.33
2018-05-26T01:49:22.867Z,70.37
2018-05-26T01:51:51.484Z,70.39
2018-05-26T01:54:20.057Z,70.37
2018-05-26T01:56:48.642Z,70.34
2018-05-26T01:59:17.226Z,70.50
2018-05-26T02:01:45.798Z,70.75
2018-05-26T02:04:14.364Z,71.15
2018-05-26T02:06:42.929Z,71.39
2018-05-26T02:09:11.508Z,71.63
2018-05-26T02:11:40.082Z,71.96
2018-05-26T02:14:08.647Z,72.01
2018-05-26T02:16:37.220Z,71.99
2018-05-26T02:19:05.790Z,71.51
2018-05-26T02:21:34.357Z,70.85
2018-05-26T02:24:02.927Z,70.79
2018-05-26T02:26:31.491Z,70.53
2018-05-26T02:29:00.076Z,70.80
2018-05-26T02:31:28.641Z,70.72
2018-05-26T02:33:57.216Z,70.64
2018-05-26T02:36:25.788Z,70.45
2018-05-26T02:38:54.370Z,70.63
2018-05-26T02:41:22.918Z,70.79
2018-05-26T02:43:51.497Z,71.14
2018-05-26T02:46:20.270Z,71.24
2018-05-26T02:48:48.850Z,71.36
2018-05-26T02:51:17.434Z,71.37
2018-05-26T02:53:46.013Z,71.13
2018-05-26T02:56:14.619Z,71.12
2018-05-26T02:58:43.187Z,72.37
2018-05-26T03:01:11.757Z,72.93
2018-05-26T03:03:40.121Z,73.17
2018-05-26T03:06:14.066Z,73.43
2018-05-26T03:08:47.931Z,73.70
2018-05-26T03:11:21.947Z,73.69
2018-05-26T03:13:56.050Z,73.59
2018-05-26T03:16:29.886Z,73.49
2018-05-26T03:18:57.865Z,73.59
2018-05-26T03:21:26.431Z,73.48
2018-05-26T03:23:54.993Z,73.32
2018-05-26T03:26:23.559Z,73.06
2018-05-26T03:28:53.320Z,72.75
2018-05-26T03:31:22.093Z,72.33
2018-05-26T03:33:50.665Z,72.07
2018-05-26T03:36:19.288Z,72.04
2018-05-26T03:38:48.013Z,71.75
2018-05-26T03:41:16.613Z,71.56
2018-05-26T03:43:46.280Z,71.59
2018-05-26T03:46:14.871Z,71.43
2018-05-26T03:48:43.435Z,71.37
2018-05-26T03:51:11.995Z,71.06
2018-05-26T03:53:40.546Z,70.67
2018-05-26T03:56:20.135Z,70.26
2018-05-26T03:58:59.707Z,70.23
2018-05-26T04:01:28.917Z,69.68
2018-05-26T04:03:57.484Z,69.45
2018-05-26T04:06:26.045Z,69.37
2018-05-26T04:08:54.603Z,69.43
2018-05-26T04:11:24.894Z,69.02
2018-05-26T04:13:53.612Z,68.85
2018-05-26T04:16:22.166Z,68.63
2018-05-26T04:18:50.728Z,68.47
2018-05-26T04:21:19.296Z,68.33
2018-05-26T04:23:47.853Z,68.33
2018-05-26T04:26:16.475Z,68.48
2018-05-26T04:28:45.044Z,68.45
2018-05-26T04:31:13.607Z,68.11
2018-05-26T04:33:42.202Z,67.96
2018-05-26T04:36:10.763Z,67.82
2018-05-26T04:38:39.313Z,67.70
2018-05-26T04:41:07.875Z,67.22
2018-05-26T04:43:36.430Z,66.76
2018-05-26T04:46:04.986Z,65.79
2018-05-26T04:48:33.547Z,64.22
2018-05-26T04:51:02.126Z,61.90
2018-05-26T04:53:30.732Z,58.72
2018-05-26T04:55:59.300Z,56.11
2018-05-26T04:58:27.863Z,52.69
2018-05-26T05:00:56.415Z,50.92
2018-05-26T05:03:25.015Z,49.26
2018-05-26T05:05:53.650Z,47.07
2018-05-26T05:08:22.216Z,46.41
2018-05-26T05:10:50.788Z,45.19
2018-05-26T05:13:19.342Z,44.35
2018-05-26T05:15:47.898Z,42.93
2018-05-26T05:18:16.468Z,42.47
2018-05-26T05:20:45.034Z,42.04
2018-05-26T05:23:13.600Z,41.85
2018-05-26T05:25:42.163Z,40.87
2018-05-26T05:28:10.719Z,41.29
2018-05-26T05:30:39.282Z,40.75
2018-05-26T05:33:07.848Z,40.47
2018-05-26T05:35:37.544Z,40.41
2018-05-26T05:38:06.109Z,41.17
2018-05-26T05:40:34.675Z,40.39
2018-05-26T05:43:03.225Z,40.08
2018-05-26T05:45:31.774Z,40.14
2018-05-26T05:48:00.324Z,41.01
2018-05-26T05:50:28.880Z,41.67
2018-05-26T05:52:57.456Z,42.27
2018-05-26T05:55:26.028Z,42.82
2018-05-26T05:57:54.575Z,43.78
2018-05-26T06:00:23.265Z,43.25
2018-05-26T06:02:51.817Z,43.77
2018-05-26T06:05:20.371Z,44.56
2018-05-26T06:07:48.932Z,45.48
2018-05-26T06:10:17.482Z,45.00
2018-05-26T06:12:46.026Z,44.84
2018-05-26T06:15:14.596Z,45.06
2018-05-26T06:17:43.004Z,45.36
2018-05-26T06:20:11.559Z,45.34
2018-05-26T06:22:40.143Z,45.28
2018-05-26T06:25:08.695Z,45.29
2018-05-26T06:27:37.238Z,46.74
2018-05-26T06:30:06.383Z,47.23
2018-05-26T06:32:34.928Z,47.00
2018-05-26T06:35:03.480Z,46.85
2018-05-26T06:37:32.037Z,47.73
2018-05-26T06:40:00.586Z,46.74
2018-05-26T06:42:29.165Z,47.64
2018-05-26T06:44:57.787Z,47.22
2018-05-26T06:47:26.373Z,46.78
2018-05-26T06:49:54.938Z,47.94
2018-05-26T06:52:23.523Z,48.39
2018-05-26T06:54:52.067Z,48.44
2018-05-26T06:57:20.614Z,48.29
2018-05-26T06:59:49.202Z,48.44
2018-05-26T07:02:17.763Z,48.86
2018-05-26T07:04:46.367Z,47.74
2018-05-26T07:07:14.957Z,47.58
2018-05-26T07:09:43.507Z,48.76
2018-05-26T07:12:12.061Z,47.40
2018-05-26T07:14:40.728Z,47.50
2018-05-26T07:17:09.339Z,47.90
2018-05-26T07:19:37.897Z,47.38
2018-05-26T07:22:06.820Z,47.43
2018-05-26T07:24:35.547Z,47.45
2018-05-26T07:27:04.217Z,47.88
2018-05-26T07:29:32.781Z,47.66
2018-05-26T07:32:01.370Z,47.17
2018-05-26T07:34:29.991Z,47.49
2018-05-26T07:36:59.462Z,47.11
2018-05-26T07:39:28.140Z,46.69
2018-05-26T07:41:56.820Z,46.72
2018-05-26T07:44:25.544Z,46.55
2018-05-26T07:46:54.140Z,46.63
2018-05-26T07:49:22.727Z,47.16
2018-05-26T07:51:51.479Z,47.31
2018-05-26T07:54:20.043Z,47.61
2018-05-26T07:56:48.711Z,47.38
2018-05-26T07:59:17.271Z,47.09
2018-05-26T08:01:45.870Z,46.97
2018-05-26T08:04:14.489Z,46.67
2018-05-26T08:06:42.802Z,46.71
2018-05-26T08:09:11.460Z,46.84
2018-05-26T08:11:40.026Z,46.01
2018-05-26T08:14:08.583Z,46.01
2018-05-26T08:16:37.143Z,46.26
2018-05-26T08:19:05.719Z,46.24
2018-05-26T08:21:34.275Z,46.36
2018-05-26T08:24:02.920Z,46.74
2018-05-26T08:26:31.516Z,45.43
2018-05-26T08:29:00.076Z,44.92
2018-05-26T08:31:28.639Z,44.99
2018-05-26T08:33:57.200Z,45.38
2018-05-26T08:36:25.755Z,45.04
2018-05-26T08:38:54.319Z,44.87
2018-05-26T08:41:22.879Z,45.45
2018-05-26T08:43:51.448Z,44.98
2018-05-26T08:46:20.003Z,44.68
2018-05-26T08:48:48.565Z,44.65
2018-05-26T08:51:17.114Z,44.46
2018-05-26T08:53:45.674Z,44.48
2018-05-26T08:56:14.258Z,43.81
2018-05-26T08:58:42.859Z,44.65
2018-05-26T09:01:11.470Z,44.30
2018-05-26T09:03:40.029Z,44.35
2018-05-26T09:06:08.579Z,43.60
2018-05-26T09:08:37.129Z,42.48
2018-05-26T09:11:05.679Z,42.31
2018-05-26T09:13:34.231Z,41.82
2018-05-26T09:16:02.481Z,42.13
2018-05-26T09:18:31.204Z,42.96
2018-05-26T09:20:59.756Z,42.90
2018-05-26T09:23:28.404Z,42.54
2018-05-26T09:25:56.962Z,42.83
2018-05-26T09:28:25.540Z,43.22
2018-05-26T09:30:54.108Z,43.02
2018-05-26T09:33:22.659Z,42.53
2018-05-26T09:35:51.224Z,42.83
2018-05-26T09:38:19.784Z,42.01
2018-05-26T09:40:48.336Z,41.77
2018-05-26T09:43:16.896Z,42.33
2018-05-26T09:45:45.455Z,42.18
2018-05-26T09:48:14.006Z,42.30
2018-05-26T09:50:42.566Z,41.89
2018-05-26T09:53:11.123Z,42.69
2018-05-26T09:55:39.676Z,42.72
2018-05-26T09:58:08.227Z,42.77
2018-05-26T10:00:36.799Z,42.65
2018-05-26T10:03:05.356Z,42.89
2018-05-26T10:05:33.906Z,41.24
2018-05-26T10:08:02.501Z,39.85
2018-05-26T10:10:31.052Z,40.61
2018-05-26T10:12:59.598Z,40.58
2018-05-26T10:15:28.207Z,39.83
2018-05-26T10:17:57.699Z,39.92
2018-05-26T10:20:26.273Z,39.46
2018-05-26T10:22:54.991Z,39.35
2018-05-26T10:25:23.548Z,39.27
2018-05-26T10:27:52.100Z,39.96
2018-05-26T10:30:20.648Z,40.49
2018-05-26T10:32:49.292Z,40.35
2018-05-26T10:35:17.840Z,38.33
2018-05-26T10:37:46.403Z,39.35
2018-05-26T10:40:14.961Z,38.96
2018-05-26T10:42:43.527Z,37.83
2018-05-26T10:45:12.075Z,38.13
2018-05-26T10:47:40.633Z,38.15
2018-05-26T10:50:09.634Z,37.43
2018-05-26T10:52:38.201Z,37.42
2018-05-26T10:55:06.771Z,37.50
2018-05-26T10:57:35.373Z,38.76
2018-05-26T11:00:05.621Z,38.94
2018-05-26T11:02:34.170Z,38.15
2018-05-26T11:05:02.728Z,39.39
2018-05-26T11:07:31.284Z,39.08
2018-05-26T11:09:59.873Z,39.03
2018-05-26T11:12:28.432Z,38.43
2018-05-26T11:14:56.983Z,38.50
2018-05-26T11:17:25.555Z,39.23
2018-05-26T11:19:54.108Z,38.69
2018-05-26T11:22:22.673Z,38.78
2018-05-26T11:24:51.314Z,38.98
2018-05-26T11:27:20.010Z,38.85
2018-05-26T11:29:48.606Z,38.41
2018-05-26T11:32:17.184Z,39.12
2018-05-26T11:34:45.753Z,39.79
2018-05-26T11:37:14.311Z,39.74
2018-05-26T11:39:42.854Z,39.37
2018-05-26T11:42:11.410Z,38.77
2018-05-26T11:44:40.053Z,38.55
2018-05-26T11:47:08.615Z,38.87
2018-05-26T11:49:37.197Z,37.83
2018-05-26T11:52:05.766Z,38.30
2018-05-26T11:54:34.341Z,38.97
2018-05-26T11:57:02.921Z,39.23
2018-05-26T11:59:31.467Z,39.59
2018-05-26T12:02:00.055Z,38.10
2018-05-26T12:04:28.763Z,38.75
2018-05-26T12:06:57.317Z,38.45
2018-05-26T12:09:25.876Z,38.72
2018-05-26T12:11:54.432Z,39.59
2018-05-26T12:14:22.979Z,40.17
2018-05-26T12:16:51.525Z,40.47
2018-05-26T12:19:20.066Z,41.21
2018-05-26T12:21:48.619Z,41.62
2018-05-26T12:24:17.171Z,41.50
2018-05-26T12:26:45.747Z,40.60
2018-05-26T12:29:14.313Z,39.94
2018-05-26T12:31:42.883Z,39.58
2018-05-26T12:34:11.431Z,40.17
2018-05-26T12:36:39.993Z,40.24
2018-05-26T12:39:08.568Z,41.00
2018-05-26T12:41:37.123Z,41.77
2018-05-26T12:44:05.681Z,42.01
2018-05-26T12:46:34.230Z,41.90
2018-05-26T12:49:02.771Z,40.59
2018-05-26T12:51:31.328Z,41.04
2018-05-26T12:53:59.869Z,40.86
2018-05-26T12:56:28.419Z,40.01
2018-05-26T12:58:56.967Z,41.18
2018-05-26T13:01:25.533Z,41.19
2018-05-26T13:03:54.081Z,40.99
2018-05-26T13:06:22.626Z,41.39
2018-05-26T13:08:51.219Z,40.81
2018-05-26T13:11:19.772Z,39.23
2018-05-26T13:13:48.321Z,38.79
2018-05-26T13:16:16.870Z,38.69
2018-05-26T13:18:45.433Z,38.46
2018-05-26T13:21:14.027Z,38.67
2018-05-26T13:23:42.575Z,38.89
2018-05-26T13:26:11.163Z,38.71
2018-05-26T13:28:39.743Z,39.46
2018-05-26T13:31:08.319Z,40.10
2018-05-26T13:33:36.873Z,40.01
2018-05-26T13:36:05.456Z,38.76
2018-05-26T13:38:34.013Z,38.67
2018-05-26T13:41:02.612Z,38.82
2018-05-26T13:43:31.165Z,39.34
2018-05-26T13:45:59.722Z,38.40
2018-05-26T13:48:28.298Z,38.44
2018-05-26T13:50:57.024Z,37.53
2018-05-26T13:53:25.605Z,37.57
2018-05-26T13:55:54.364Z,37.14
2018-05-26T13:58:23.078Z,37.38
2018-05-26T14:00:51.675Z,38.34
2018-05-26T14:03:20.357Z,39.25
2018-05-26T14:05:48.931Z,39.91
2018-05-26T14:08:17.685Z,39.86
2018-05-26T14:10:47.030Z,38.96
2018-05-26T14:13:15.621Z,37.86
2018-05-26T14:15:44.180Z,37.38
2018-05-26T14:18:12.740Z,38.12
2018-05-26T14:20:41.291Z,38.20
2018-05-26T14:23:09.873Z,38.43
2018-05-26T14:25:38.604Z,37.57
2018-05-26T14:28:07.187Z,38.58
2018-05-26T14:30:35.861Z,38.35
2018-05-26T14:33:04.571Z,37.86
2018-05-26T14:35:33.128Z,37.72
2018-05-26T14:38:01.696Z,38.25
2018-05-26T14:40:30.258Z,39.05
2018-05-26T14:42:58.798Z,39.41
2018-05-26T14:45:27.345Z,36.55
2018-05-26T14:47:55.908Z,36.63
2018-05-26T14:50:24.459Z,36.98
2018-05-26T14:52:53.059Z,37.09
2018-05-26T14:55:21.611Z,37.04
2018-05-26T14:57:50.163Z,36.52
2018-05-26T15:00:18.775Z,37.13
2018-05-26T15:02:47.524Z,37.58
2018-05-26T15:05:16.083Z,38.28
2018-05-26T15:07:44.641Z,38.84
2018-05-26T15:10:12.831Z,38.86
2018-05-26T15:12:41.395Z,38.12
2018-05-26T15:15:10.147Z,37.94
2018-05-26T15:17:38.711Z,37.52
2018-05-26T15:20:07.275Z,37.70
2018-05-26T15:22:35.829Z,38.11
2018-05-26T15:25:04.398Z,38.25
2018-05-26T15:27:32.981Z,37.62
2018-05-26T15:30:01.527Z,38.02
2018-05-26T15:32:30.106Z,38.52
2018-05-26T15:34:58.661Z,38.06
2018-05-26T15:37:27.255Z,38.37
2018-05-26T15:39:55.798Z,37.74
2018-05-26T15:42:24.347Z,38.26
2018-05-26T15:44:53.103Z,38.69
2018-05-26T15:47:21.655Z,38.99
2018-05-26T15:49:50.204Z,39.29
2018-05-26T15:52:18.774Z,39.06
2018-05-26T15:54:47.328Z,38.96
2018-05-26T15:57:15.897Z,39.28
2018-05-26T15:59:44.468Z,39.08
2018-05-26T16:02:13.024Z,38.47
2018-05-26T16:04:41.603Z,38.12
2018-05-26T16:07:10.180Z,38.22
2018-05-26T16:09:38.766Z,38.56
2018-05-26T16:12:07.315Z,39.51
2018-05-26T16:14:35.866Z,39.80
2018-05-26T16:17:04.420Z,39.90
2018-05-26T16:19:32.967Z,39.52
2018-05-26T16:22:01.511Z,39.72
2018-05-26T16:24:30.063Z,39.24
2018-05-26T16:26:58.624Z,38.82
2018-05-26T16:29:27.188Z,38.36
2018-05-26T16:31:55.919Z,38.56
2018-05-26T16:34:24.468Z,39.21
2018-05-26T16:36:53.087Z,39.48
2018-05-26T16:39:21.639Z,39.22
2018-05-26T16:41:50.241Z,39.92
2018-05-26T16:44:18.995Z,40.98
2018-05-26T16:46:47.551Z,42.98
2018-05-26T16:49:16.120Z,51.12
2018-05-26T16:51:44.720Z,55.44
2018-05-26T16:54:13.284Z,55.45
2018-05-26T16:56:41.833Z,54.62
2018-05-26T16:59:10.388Z,55.61
2018-05-26T17:01:38.947Z,54.56
2018-05-26T17:04:07.519Z,52.95
2018-05-26T17:06:36.132Z,52.09
2018-05-26T17:09:03.771Z,53.05
2018-05-26T17:11:32.359Z,52.15
2018-05-26T17:14:00.910Z,51.29
2018-05-26T17:16:29.562Z,51.97
2018-05-26T17:18:58.271Z,51.23
2018-05-26T17:21:26.827Z,50.41
2018-05-26T17:23:55.384Z,50.34
2018-05-26T17:26:24.052Z,49.83
2018-05-26T17:28:52.604Z,50.37
2018-05-26T17:31:21.163Z,50.17
2018-05-26T17:33:49.708Z,50.63
2018-05-26T17:36:18.276Z,50.97
2018-05-26T17:38:46.831Z,51.33
2018-05-26T17:41:15.400Z,51.47
2018-05-26T17:43:43.594Z,51.42
2018-05-26T17:46:12.244Z,51.73
2018-05-26T17:48:40.808Z,51.38
2018-05-26T17:51:09.394Z,51.71
2018-05-26T17:53:37.948Z,51.42
2018-05-26T17:56:06.503Z,51.92
2018-05-26T17:58:35.057Z,52.03
2018-05-26T18:01:03.608Z,52.06
2018-05-26T18:03:32.189Z,51.89
2018-05-26T18:06:00.756Z,52.20
2018-05-26T18:08:29.339Z,52.16
2018-05-26T18:10:58.071Z,52.15
2018-05-26T18:13:26.632Z,51.83
2018-05-26T18:15:55.378Z,51.22
2018-05-26T18:18:23.958Z,51.41
2018-05-26T18:20:52.515Z,51.68
2018-05-26T18:23:21.092Z,51.48
2018-05-26T18:25:49.663Z,51.54
2018-05-26T18:28:18.228Z,51.89
2018-05-26T18:30:46.799Z,51.22
2018-05-26T18:33:15.371Z,51.52
2018-05-26T18:35:43.919Z,51.31
2018-05-26T18:38:12.462Z,51.33
2018-05-26T18:40:41.010Z,51.33
2018-05-26T18:43:09.584Z,51.92
2018-05-26T18:45:38.189Z,52.55
2018-05-26T18:48:06.740Z,53.05
2018-05-26T18:50:35.287Z,53.53
2018-05-26T18:53:03.895Z,54.03
2018-05-26T18:55:32.490Z,54.88
2018-05-26T18:58:01.079Z,55.20
2018-05-26T19:00:29.652Z,55.49
2018-05-26T19:02:57.975Z,55.80
2018-05-26T19:05:26.531Z,55.88
2018-05-26T19:07:55.189Z,56.12
2018-05-26T19:10:23.746Z,56.58
2018-05-26T19:12:52.310Z,56.59
2018-05-26T19:15:20.889Z,56.62
2018-05-26T19:17:49.525Z,56.56
2018-05-26T19:20:18.081Z,56.44
2018-05-26T19:22:46.667Z,56.12
2018-05-26T19:25:15.276Z,56.27
2018-05-26T19:27:43.875Z,56.36
2018-05-26T19:30:12.447Z,56.34
2018-05-26T19:32:41.002Z,56.23
2018-05-26T19:35:09.559Z,56.15
2018-05-26T19:37:38.134Z,56.32
2018-05-26T19:40:06.685Z,56.12
2018-05-26T19:42:35.239Z,56.23
2018-05-26T19:45:03.854Z,56.67
2018-05-26T19:47:32.403Z,56.89
2018-05-26T19:50:00.972Z,57.12
2018-05-26T19:52:29.711Z,57.27
2018-05-26T19:54:58.281Z,57.34
2018-05-26T19:57:26.841Z,58.21
2018-05-26T19:59:55.484Z,58.64
2018-05-26T20:02:24.048Z,59.27
2018-05-26T20:04:52.651Z,59.70
2018-05-26T20:07:21.308Z,59.66
2018-05-26T20:09:49.912Z,59.62
2018-05-26T20:12:18.502Z,58.94
2018-05-26T20:14:47.061Z,59.09
2018-05-26T20:17:15.676Z,58.53
2018-05-26T20:19:44.235Z,58.73
2018-05-26T20:22:12.796Z,59.11
2018-05-26T20:24:41.356Z,59.08
2018-05-26T20:27:09.916Z,58.94
2018-05-26T20:29:38.529Z,58.90
2018-05-26T20:32:07.097Z,59.01
2018-05-26T20:34:35.657Z,59.09
2018-05-26T20:37:04.228Z,58.76
2018-05-26T20:39:34.647Z,58.81
2018-05-26T20:42:03.297Z,59.39
2018-05-26T20:44:31.851Z,59.88
2018-05-26T20:47:00.415Z,59.73
2018-05-26T20:49:28.971Z,59.54
2018-05-26T20:51:57.598Z,60.01
2018-05-26T20:54:26.646Z,59.51
2018-05-26T20:56:55.199Z,59.23
2018-05-26T20:59:23.754Z,59.12
2018-05-26T21:01:52.889Z,58.92
2018-05-26T21:04:21.494Z,59.04
2018-05-26T21:06:50.129Z,59.56
2018-05-26T21:09:18.848Z,60.02
2018-05-26T21:11:47.408Z,60.08
2018-05-26T21:14:15.964Z,59.50
2018-05-26T21:16:44.516Z,59.82
2018-05-26T21:19:13.066Z,61.01
2018-05-26T21:21:41.631Z,61.36
2018-05-26T21:24:10.214Z,61.49
2018-05-26T21:26:38.783Z,61.98
2018-05-26T21:29:08.531Z,62.81
2018-05-26T21:31:37.367Z,62.95
2018-05-26T21:34:05.981Z,62.38
2018-05-26T21:36:34.677Z,61.48
2018-05-26T21:39:03.288Z,60.72
2018-05-26T21:41:31.844Z,60.20
2018-05-26T21:44:00.401Z,59.82
2018-05-26T21:46:28.971Z,60.14
2018-05-26T21:48:57.540Z,59.71
2018-05-26T21:51:26.091Z,59.57
2018-05-26T21:53:54.651Z,59.55
2018-05-26T21:56:23.207Z,59.50
2018-05-26T21:58:51.765Z,59.41
2018-05-26T22:01:20.335Z,59.80
2018-05-26T22:03:48.886Z,60.15
2018-05-26T22:06:17.436Z,60.34
2018-05-26T22:08:46.027Z,60.69
2018-05-26T22:11:14.575Z,60.98
2018-05-26T22:13:43.126Z,61.28
2018-05-26T22:16:11.742Z,61.49
2018-05-26T22:18:40.295Z,61.67
2018-05-26T22:21:08.847Z,61.89
2018-05-26T22:23:37.414Z,61.92
2018-05-26T22:26:05.974Z,61.88
2018-05-26T22:28:34.527Z,62.03
2018-05-26T22:31:03.090Z,61.75
2018-05-26T22:33:31.640Z,61.64
2018-05-26T22:36:00.204Z,61.63
2018-05-26T22:38:28.820Z,61.72
2018-05-26T22:40:57.527Z,61.10
2018-05-26T22:43:26.088Z,59.73
2018-05-26T22:45:54.643Z,59.77
2018-05-26T22:48:23.195Z,61.38
2018-05-26T22:50:51.754Z,60.18
2018-05-26T22:53:20.338Z,60.72
2018-05-26T22:55:48.890Z,61.59
2018-05-26T22:58:17.454Z,60.98
2018-05-26T23:00:46.020Z,61.25
2018-05-26T23:03:14.563Z,60.54
2018-05-26T23:05:43.117Z,60.52
2018-05-26T23:08:11.871Z,60.22
2018-05-26T23:10:40.431Z,59.58
2018-05-26T23:13:08.978Z,60.08
2018-05-26T23:15:37.539Z,61.61
2018-05-26T23:18:06.097Z,62.26
2018-05-26T23:20:34.657Z,62.67
2018-05-26T23:23:03.220Z,62.56
2018-05-26T23:25:31.800Z,62.04
2018-05-26T23:28:00.416Z,60.88
2018-05-26T23:30:28.963Z,59.93
2018-05-26T23:32:57.506Z,59.98
2018-05-26T23:35:26.066Z,60.17
2018-05-26T23:37:54.621Z,60.77
2018-05-26T23:40:23.175Z,59.76
2018-05-26T23:42:51.728Z,59.24
2018-05-26T23:45:20.286Z,58.89
2018-05-26T23:47:48.835Z,58.37
2018-05-26T23:50:17.382Z,58.62
2018-05-26T23:52:45.639Z,58.55
2018-05-26T23:55:14.190Z,58.43
2018-05-26T23:57:42.734Z,58.61
